Terminal Aerodrome Forecast
Issued by NWS

Home | Current Version | Previous Version | Graphics & Text | Print | Product List | Glossary On
Versions: 1 2 3 4 5 6 7 8 9 10 11 12 13 14 15 16 17 18 19 20 21
630
FTUS41 KCLE 141858 AAB
TAFFDY
TAF AMD
KFDY 141858Z 1419/1518 18010KT P6SM BKN035
     FM150100 14006KT P6SM BKN200
     FM151000 14009KT 4SM -SN OVC035
     FM151300 15010KT 1 1/2SM -SN OVC012=

USA.gov is the U.S. government's official web portal to all federal, state and local government web resources and services.